Time;durP1;ratioP1;P1;durP2;ratioP2;P2;SDS_P1;SDS_P2;PMS_P1;PMS_P2;Temp;Humidity;BMP_temperature;BMP_pressure;BME280_temperature;BME280_humidity;BME280_pressure;Samples;Min_cycle;Max_cycle;Signal;HPM_P1;HPM_P2
2024/03/22 00:01:50;;;;;;;33.67;18.95;;;;;;;;;;5049369;28;20035;-88
2024/03/22 00:04:16;;;;;;;31.08;17.40;;;;;;;;;;5049741;28;20021;-90
2024/03/22 00:06:42;;;;;;;32.47;17.27;;;;;;;;;;5050064;28;20032;-90
2024/03/22 00:09:08;;;;;;;35.97;18.15;;;;;;;;;;5031674;28;20502;-89
2024/03/22 00:11:34;;;;;;;36.55;18.88;;;;;;;;;;5033885;28;20104;-89
2024/03/22 00:13:59;;;;;;;35.63;18.33;;;;;;;;;;5047423;28;20367;-78
2024/03/22 00:16:25;;;;;;;38.00;19.48;;;;;;;;;;5048735;28;20046;-78
2024/03/22 00:18:50;;;;;;;36.50;19.17;;;;;;;;;;5029460;28;20028;-78
2024/03/22 00:21:16;;;;;;;33.95;17.98;;;;;;;;;;5028215;28;20228;-77
2024/03/22 00:23:42;;;;;;;35.30;19.85;;;;;;;;;;5029948;28;20032;-78
2024/03/22 00:26:08;;;;;;;34.00;17.92;;;;;;;;;;5047301;28;20036;-78
2024/03/22 00:28:33;;;;;;;36.28;19.77;;;;;;;;;;5047287;28;20028;-78
2024/03/22 00:30:58;;;;;;;36.22;18.95;;;;;;;;;;5044257;28;20668;-78
2024/03/22 00:33:24;;;;;;;36.92;19.50;;;;;;;;;;5047423;28;20107;-78
2024/03/22 00:35:50;;;;;;;40.63;19.42;;;;;;;;;;5028326;28;20108;-77
2024/03/22 00:38:15;;;;;;;37.17;19.15;;;;;;;;;;5047192;28;20047;-77
2024/03/22 00:40:40;;;;;;;38.50;20.27;;;;;;;;;;5046670;28;20024;-77
2024/03/22 00:43:06;;;;;;;36.80;18.65;;;;;;;;;;5047234;28;20036;-77
2024/03/22 00:45:32;;;;;;;37.88;18.77;;;;;;;;;;5029644;28;20098;-78
2024/03/22 00:47:57;;;;;;;39.10;19.75;;;;;;;;;;5046239;28;20108;-77
2024/03/22 00:50:23;;;;;;;38.08;20.13;;;;;;;;;;5029201;28;20480;-78
2024/03/22 00:52:51;;;;;;;38.10;19.05;;;;;;;;;;5030151;28;20036;-78
2024/03/22 00:55:16;;;;;;;37.67;19.92;;;;;;;;;;5029800;28;20045;-78
2024/03/22 00:57:42;;;;;;;34.20;18.33;;;;;;;;;;5030533;28;20051;-78
2024/03/22 01:00:08;;;;;;;37.30;19.50;;;;;;;;;;5046132;28;20694;-78
2024/03/22 01:02:33;;;;;;;36.70;19.85;;;;;;;;;;5028800;28;20037;-77
2024/03/22 01:04:59;;;;;;;40.85;20.75;;;;;;;;;;5047360;28;20033;-78
2024/03/22 01:07:24;;;;;;;36.65;20.00;;;;;;;;;;5027861;28;20563;-78
2024/03/22 01:09:49;;;;;;;35.38;20.20;;;;;;;;;;5044881;28;20024;-78
2024/03/22 01:12:15;;;;;;;37.45;20.83;;;;;;;;;;5047268;28;20029;-78
2024/03/22 01:14:40;;;;;;;39.90;20.77;;;;;;;;;;5047438;28;20123;-77
2024/03/22 01:17:05;;;;;;;37.50;20.38;;;;;;;;;;5046357;28;20029;-78
2024/03/22 01:19:31;;;;;;;39.25;18.75;;;;;;;;;;5046478;28;20031;-78
2024/03/22 01:21:56;;;;;;;36.97;19.58;;;;;;;;;;5043719;28;20033;-78
2024/03/22 01:24:22;;;;;;;35.42;20.02;;;;;;;;;;5046366;28;20036;-91
2024/03/22 01:26:47;;;;;;;33.90;18.67;;;;;;;;;;5027544;28;20108;-91
2024/03/22 01:29:14;;;;;;;35.85;18.80;;;;;;;;;;5027734;28;20037;-90
2024/03/22 01:31:39;;;;;;;35.92;19.77;;;;;;;;;;5030804;28;20483;-89
2024/03/22 01:34:05;;;;;;;36.45;19.40;;;;;;;;;;5048247;28;20021;-90
2024/03/22 01:36:30;;;;;;;39.25;19.70;;;;;;;;;;5045756;28;20095;-91
2024/03/22 01:38:56;;;;;;;33.90;18.98;;;;;;;;;;5049800;28;20029;-90
2024/03/22 01:41:21;;;;;;;36.80;19.70;;;;;;;;;;5032245;28;20059;-90
2024/03/22 01:43:46;;;;;;;35.60;19.98;;;;;;;;;;5046767;28;21402;-90
2024/03/22 01:46:12;;;;;;;33.60;19.08;;;;;;;;;;5047601;28;20037;-90
2024/03/22 01:48:37;;;;;;;38.35;20.10;;;;;;;;;;5032348;28;20066;-89
2024/03/22 01:51:04;;;;;;;34.35;19.35;;;;;;;;;;5045033;28;20021;-89
2024/03/22 01:53:29;;;;;;;35.30;20.33;;;;;;;;;;5045531;28;20036;-89
2024/03/22 01:55:55;;;;;;;31.50;18.92;;;;;;;;;;5030328;28;20033;-90
2024/03/22 01:58:21;;;;;;;35.03;20.52;;;;;;;;;;5048158;28;20025;-89
2024/03/22 02:00:47;;;;;;;33.55;19.00;;;;;;;;;;5047108;28;20025;-78
2024/03/22 02:03:12;;;;;;;36.03;19.75;;;;;;;;;;5048959;28;20040;-78
2024/03/22 02:05:38;;;;;;;33.60;19.35;;;;;;;;;;5045671;28;20056;-78
2024/03/22 02:08:03;;;;;;;35.10;19.08;;;;;;;;;;5044314;28;20682;-78
2024/03/22 02:10:29;;;;;;;35.55;19.25;;;;;;;;;;5048152;28;20021;-78
2024/03/22 02:12:54;;;;;;;32.65;19.40;;;;;;;;;;5045751;28;20047;-78
2024/03/22 02:15:20;;;;;;;33.17;19.45;;;;;;;;;;5045783;28;20853;-78
2024/03/22 02:17:45;;;;;;;35.95;19.95;;;;;;;;;;5045753;28;20032;-78
2024/03/22 02:20:11;;;;;;;34.20;18.65;;;;;;;;;;5045527;28;20020;-77
2024/03/22 02:22:38;;;;;;;35.88;19.15;;;;;;;;;;5044245;28;20024;-78
2024/03/22 02:25:03;;;;;;;31.33;19.23;;;;;;;;;;5027507;28;20039;-78
2024/03/22 02:27:29;;;;;;;34.75;19.90;;;;;;;;;;5029626;28;20479;-78
2024/03/22 02:29:54;;;;;;;35.45;20.23;;;;;;;;;;5027338;28;20021;-78
2024/03/22 02:32:20;;;;;;;36.78;20.48;;;;;;;;;;5026626;28;20025;-78
2024/03/22 02:34:45;;;;;;;33.33;19.80;;;;;;;;;;5044864;28;20040;-78
2024/03/22 02:37:11;;;;;;;36.95;18.98;;;;;;;;;;5043430;28;20032;-78
2024/03/22 02:39:36;;;;;;;36.00;20.58;;;;;;;;;;5042870;28;20075;-78
2024/03/22 02:42:01;;;;;;;34.75;19.60;;;;;;;;;;5044550;28;20075;-78
2024/03/22 02:44:27;;;;;;;30.98;18.27;;;;;;;;;;5043176;28;20032;-78
2024/03/22 02:46:52;;;;;;;33.67;19.20;;;;;;;;;;5026182;28;20747;-78
2024/03/22 02:49:18;;;;;;;34.88;19.23;;;;;;;;;;5045370;28;20029;-78
2024/03/22 02:51:43;;;;;;;33.10;18.80;;;;;;;;;;5027100;28;20029;-77
2024/03/22 02:54:08;;;;;;;33.28;19.63;;;;;;;;;;5027108;28;20028;-78
2024/03/22 02:56:34;;;;;;;31.90;18.65;;;;;;;;;;5027333;28;20112;-79
2024/03/22 02:58:59;;;;;;;35.35;20.02;;;;;;;;;;5044192;28;20473;-78
2024/03/22 03:01:25;;;;;;;34.83;18.92;;;;;;;;;;5041631;28;20024;-78
2024/03/22 03:03:50;;;;;;;35.47;19.67;;;;;;;;;;5043642;28;20020;-78
2024/03/22 03:06:17;;;;;;;32.88;19.17;;;;;;;;;;5025728;28;20029;-77
2024/03/22 03:08:43;;;;;;;34.03;18.77;;;;;;;;;;5044927;28;20029;-78
2024/03/22 03:11:08;;;;;;;34.10;18.95;;;;;;;;;;5029580;28;20112;-78
2024/03/22 03:13:34;;;;;;;31.90;19.98;;;;;;;;;;5044125;28;20029;-78
2024/03/22 03:15:59;;;;;;;35.58;20.42;;;;;;;;;;5044212;28;20059;-78
2024/03/22 03:18:25;;;;;;;30.80;18.88;;;;;;;;;;5025450;28;20052;-78
2024/03/22 03:20:50;;;;;;;28.95;18.90;;;;;;;;;;5024684;28;20112;-78
2024/03/22 03:23:15;;;;;;;37.75;19.25;;;;;;;;;;5042303;28;20029;-77
2024/03/22 03:25:41;;;;;;;36.47;20.20;;;;;;;;;;5026583;28;20048;-78
2024/03/22 03:28:07;;;;;;;35.28;19.70;;;;;;;;;;5025563;28;20028;-78
2024/03/22 03:30:33;;;;;;;35.72;19.77;;;;;;;;;;5043463;28;20036;-78
2024/03/22 03:32:58;;;;;;;31.48;19.58;;;;;;;;;;5030214;28;20120;-78
2024/03/22 03:35:25;;;;;;;32.33;20.27;;;;;;;;;;5046158;28;20124;-78
2024/03/22 03:37:51;;;;;;;34.63;20.17;;;;;;;;;;5047138;28;20040;-78
2024/03/22 03:40:16;;;;;;;32.65;20.00;;;;;;;;;;5029402;28;20451;-78
2024/03/22 03:42:41;;;;;;;33.90;20.20;;;;;;;;;;5047824;28;20497;-78
2024/03/22 03:45:07;;;;;;;31.23;18.52;;;;;;;;;;5046614;28;20918;-78
2024/03/22 03:47:33;;;;;;;33.88;19.45;;;;;;;;;;5044257;28;20469;-78
2024/03/22 03:49:58;;;;;;;30.65;18.63;;;;;;;;;;5030986;28;20021;-77
2024/03/22 03:52:24;;;;;;;31.83;18.98;;;;;;;;;;5047782;28;20336;-78
2024/03/22 03:54:49;;;;;;;30.95;19.05;;;;;;;;;;5029181;28;20029;-78
2024/03/22 03:57:15;;;;;;;32.15;17.70;;;;;;;;;;5044083;28;20390;-78
2024/03/22 03:59:40;;;;;;;28.60;17.10;;;;;;;;;;5046154;28;21123;-78
2024/03/22 04:02:06;;;;;;;28.30;16.83;;;;;;;;;;5034618;28;20025;-77
2024/03/22 04:04:31;;;;;;;26.27;16.50;;;;;;;;;;5047488;28;20540;-77
2024/03/22 04:06:56;;;;;;;29.08;17.67;;;;;;;;;;5046011;28;20470;-78
2024/03/22 04:09:22;;;;;;;28.70;17.42;;;;;;;;;;5030184;28;20049;-78
2024/03/22 04:11:47;;;;;;;26.10;16.48;;;;;;;;;;5032146;28;20127;-78
2024/03/22 04:14:13;;;;;;;26.85;15.75;;;;;;;;;;5029117;28;20479;-78
2024/03/22 04:16:38;;;;;;;27.05;15.50;;;;;;;;;;5046756;28;20143;-78
2024/03/22 04:19:04;;;;;;;24.73;15.65;;;;;;;;;;5047817;28;20082;-78
2024/03/22 04:21:29;;;;;;;26.35;15.50;;;;;;;;;;5045621;28;20025;-77
2024/03/22 04:23:54;;;;;;;26.77;16.10;;;;;;;;;;5037912;28;20025;-89
2024/03/22 04:26:20;;;;;;;23.48;15.45;;;;;;;;;;5045461;28;20660;-90
2024/03/22 04:28:46;;;;;;;24.40;14.85;;;;;;;;;;5027063;28;20045;-90
2024/03/22 04:31:11;;;;;;;23.52;14.45;;;;;;;;;;5045306;28;20017;-89
2024/03/22 04:33:37;;;;;;;25.52;15.57;;;;;;;;;;5046903;28;20024;-89
2024/03/22 04:36:03;;;;;;;26.02;14.90;;;;;;;;;;5031911;28;20112;-89
2024/03/22 04:38:29;;;;;;;24.33;14.25;;;;;;;;;;5031110;28;20116;-89
2024/03/22 04:40:56;;;;;;;26.48;14.93;;;;;;;;;;5047685;28;20047;-90
2024/03/22 04:43:22;;;;;;;28.00;15.40;;;;;;;;;;5045300;28;20021;-90
2024/03/22 04:45:48;;;;;;;25.20;14.88;;;;;;;;;;5031003;28;20028;-90
2024/03/22 04:48:16;;;;;;;25.27;15.23;;;;;;;;;;5030272;28;20017;-89
2024/03/22 04:50:42;;;;;;;24.73;14.98;;;;;;;;;;5029555;28;20029;-90
2024/03/22 04:53:07;;;;;;;22.98;14.70;;;;;;;;;;5046197;28;20165;-89
2024/03/22 04:55:33;;;;;;;25.77;15.20;;;;;;;;;;5047272;28;20540;-89
2024/03/22 04:58:00;;;;;;;24.98;16.15;;;;;;;;;;5030481;28;20155;-89
2024/03/22 05:00:26;;;;;;;28.00;17.52;;;;;;;;;;5030488;28;20074;-89
2024/03/22 05:02:52;;;;;;;28.63;17.80;;;;;;;;;;5048454;28;20025;-92
2024/03/22 05:05:17;;;;;;;27.40;16.58;;;;;;;;;;5046775;28;20032;-90
2024/03/22 05:07:43;;;;;;;27.95;17.08;;;;;;;;;;5047705;28;20033;-89
2024/03/22 05:10:09;;;;;;;28.10;16.73;;;;;;;;;;5046272;28;20051;-90
2024/03/22 05:12:35;;;;;;;26.23;16.15;;;;;;;;;;5032815;28;20035;-91
2024/03/22 05:15:03;;;;;;;26.85;16.05;;;;;;;;;;5029856;28;20355;-90
2024/03/22 05:17:29;;;;;;;26.00;14.95;;;;;;;;;;5029268;28;20031;-89
2024/03/22 05:19:55;;;;;;;24.40;15.50;;;;;;;;;;5031258;28;20117;-89
2024/03/22 05:22:20;;;;;;;26.33;15.27;;;;;;;;;;5048492;28;20100;-89
2024/03/22 05:24:46;;;;;;;22.27;14.63;;;;;;;;;;5047683;28;20037;-90
2024/03/22 05:27:12;;;;;;;23.08;14.00;;;;;;;;;;5027752;28;20044;-91
2024/03/22 05:29:38;;;;;;;24.55;14.45;;;;;;;;;;5046956;28;20039;-89
2024/03/22 05:32:04;;;;;;;24.15;14.75;;;;;;;;;;5048382;28;20032;-90
2024/03/22 05:34:29;;;;;;;24.05;14.82;;;;;;;;;;5031320;28;20031;-89
2024/03/22 05:36:55;;;;;;;23.35;13.68;;;;;;;;;;5030473;28;20115;-89
2024/03/22 05:39:20;;;;;;;24.95;14.45;;;;;;;;;;5044696;28;20021;-89
2024/03/22 05:41:46;;;;;;;21.80;13.95;;;;;;;;;;5044326;28;20054;-91
2024/03/22 05:44:11;;;;;;;22.95;13.23;;;;;;;;;;5028849;28;20024;-89
2024/03/22 05:46:37;;;;;;;23.50;13.68;;;;;;;;;;5044974;28;20079;-90
2024/03/22 05:49:02;;;;;;;25.20;14.05;;;;;;;;;;5042684;28;20105;-89
2024/03/22 05:51:29;;;;;;;24.85;14.07;;;;;;;;;;5043005;28;20024;-89
2024/03/22 05:53:56;;;;;;;22.98;13.75;;;;;;;;;;5045397;28;20049;-90
2024/03/22 05:56:21;;;;;;;22.10;13.43;;;;;;;;;;5023295;28;20028;-90
2024/03/22 05:58:47;;;;;;;23.33;13.15;;;;;;;;;;5023805;28;20028;-89
2024/03/22 06:01:12;;;;;;;22.65;13.65;;;;;;;;;;5026423;28;20033;-91
2024/03/22 06:03:38;;;;;;;21.98;13.55;;;;;;;;;;5029269;28;20376;-90
2024/03/22 06:06:03;;;;;;;23.15;13.20;;;;;;;;;;5045139;28;20033;-89
2024/03/22 06:08:31;;;;;;;24.65;14.02;;;;;;;;;;5028576;28;20456;-89
2024/03/22 06:10:57;;;;;;;24.67;13.95;;;;;;;;;;5030046;28;20021;-90
2024/03/22 06:13:23;;;;;;;23.88;13.63;;;;;;;;;;5031378;28;20024;-90
2024/03/22 06:15:49;;;;;;;22.92;13.32;;;;;;;;;;5027268;28;20048;-90
2024/03/22 06:18:14;;;;;;;22.70;13.05;;;;;;;;;;5028557;28;20039;-89
2024/03/22 06:20:40;;;;;;;21.77;13.20;;;;;;;;;;5035063;28;20032;-90
2024/03/22 06:23:05;;;;;;;25.75;14.02;;;;;;;;;;5022627;28;20128;-90
2024/03/22 06:25:31;;;;;;;22.02;13.38;;;;;;;;;;5047165;28;20052;-91
2024/03/22 06:27:56;;;;;;;23.08;14.30;;;;;;;;;;5037452;28;21197;-88
2024/03/22 06:30:22;;;;;;;24.48;14.00;;;;;;;;;;5048291;28;20383;-89
2024/03/22 06:32:47;;;;;;;23.42;13.60;;;;;;;;;;5032611;28;20020;-89
2024/03/22 06:35:12;;;;;;;22.25;13.02;;;;;;;;;;5051136;28;20417;-89
2024/03/22 06:37:39;;;;;;;24.00;14.35;;;;;;;;;;5028740;28;20043;-90
2024/03/22 06:40:07;;;;;;;27.20;14.55;;;;;;;;;;5045049;28;20028;-89
2024/03/22 06:42:32;;;;;;;25.40;14.70;;;;;;;;;;5041495;28;20032;-90
2024/03/22 06:44:58;;;;;;;27.50;14.68;;;;;;;;;;5030399;28;20032;-78
2024/03/22 06:47:23;;;;;;;24.00;14.18;;;;;;;;;;5046395;28;20407;-78
2024/03/22 06:49:49;;;;;;;25.40;14.07;;;;;;;;;;5046135;28;20033;-77
2024/03/22 06:52:14;;;;;;;25.00;14.65;;;;;;;;;;5051183;28;20021;-78
2024/03/22 06:54:40;;;;;;;24.67;14.02;;;;;;;;;;5033612;28;20035;-77
2024/03/22 06:57:06;;;;;;;24.30;14.43;;;;;;;;;;5031809;28;20096;-77
2024/03/22 06:59:31;;;;;;;23.27;14.68;;;;;;;;;;5029205;28;20490;-78
2024/03/22 07:01:56;;;;;;;24.60;14.13;;;;;;;;;;5034306;28;20116;-78
2024/03/22 07:04:22;;;;;;;24.25;14.20;;;;;;;;;;5050683;28;20035;-78
2024/03/22 07:06:47;;;;;;;23.10;14.00;;;;;;;;;;5049761;28;20382;-78
2024/03/22 07:09:13;;;;;;;22.00;13.45;;;;;;;;;;5036239;28;20702;-77
2024/03/22 07:11:38;;;;;;;24.95;13.80;;;;;;;;;;5039458;28;20496;-78
2024/03/22 07:14:03;;;;;;;21.33;13.80;;;;;;;;;;5026985;28;20028;-77
2024/03/22 07:16:29;;;;;;;24.00;14.30;;;;;;;;;;5028483;28;20111;-78
2024/03/22 07:18:54;;;;;;;24.88;13.90;;;;;;;;;;5038058;28;20028;-77
2024/03/22 07:21:20;;;;;;;22.58;13.90;;;;;;;;;;5037561;28;20376;-78
2024/03/22 07:23:45;;;;;;;22.48;13.07;;;;;;;;;;5037274;28;20112;-78
2024/03/22 07:26:10;;;;;;;23.40;13.15;;;;;;;;;;5049226;28;20403;-78
2024/03/22 07:28:36;;;;;;;25.40;13.52;;;;;;;;;;5050562;28;20035;-78
2024/03/22 07:31:01;;;;;;;22.70;14.02;;;;;;;;;;5047829;28;20037;-78
2024/03/22 07:33:27;;;;;;;23.13;14.38;;;;;;;;;;5029613;28;20025;-78
2024/03/22 07:35:54;;;;;;;24.48;13.73;;;;;;;;;;5036685;28;20032;-77
2024/03/22 07:38:19;;;;;;;22.67;14.05;;;;;;;;;;5035385;28;20028;-77
2024/03/22 07:40:45;;;;;;;23.85;14.32;;;;;;;;;;5053887;28;20025;-77
2024/03/22 07:43:10;;;;;;;24.02;13.50;;;;;;;;;;5044961;28;20025;-78
2024/03/22 07:45:37;;;;;;;20.77;13.93;;;;;;;;;;5044895;28;20110;-77
2024/03/22 07:48:02;;;;;;;23.48;13.80;;;;;;;;;;5047372;28;20479;-77
2024/03/22 07:50:28;;;;;;;22.10;13.50;;;;;;;;;;5037081;28;20032;-77
2024/03/22 07:52:54;;;;;;;22.42;13.23;;;;;;;;;;5034201;28;20112;-77
2024/03/22 07:55:19;;;;;;;25.70;14.20;;;;;;;;;;5048561;28;20035;-77
2024/03/22 07:57:45;;;;;;;22.65;13.60;;;;;;;;;;5051846;28;20027;-77
2024/03/22 08:00:11;;;;;;;22.67;13.38;;;;;;;;;;5037786;28;20070;-77
2024/03/22 08:02:36;;;;;;;23.10;14.18;;;;;;;;;;5048435;28;20032;-77
2024/03/22 08:05:02;;;;;;;22.35;12.80;;;;;;;;;;5049590;28;20027;-87
2024/03/22 08:07:29;;;;;;;20.67;13.20;;;;;;;;;;5039791;28;20094;-88
2024/03/22 08:09:55;;;;;;;22.10;13.32;;;;;;;;;;5052754;28;20453;-87
2024/03/22 08:12:21;;;;;;;20.80;12.85;;;;;;;;;;5043771;28;20032;-88
2024/03/22 08:14:46;;;;;;;23.23;13.73;;;;;;;;;;5047386;28;20025;-88
2024/03/22 08:17:12;;;;;;;21.70;13.68;;;;;;;;;;5033001;28;20021;-89
2024/03/22 08:19:38;;;;;;;23.45;13.05;;;;;;;;;;5035184;28;20116;-88
2024/03/22 08:22:03;;;;;;;23.42;11.95;;;;;;;;;;5042361;28;20106;-88
2024/03/22 08:24:29;;;;;;;20.60;12.48;;;;;;;;;;5033485;28;20458;-88
2024/03/22 08:26:55;;;;;;;21.58;11.57;;;;;;;;;;5037263;28;20032;-87
2024/03/22 08:29:21;;;;;;;19.95;11.27;;;;;;;;;;5049382;28;20112;-87
2024/03/22 08:31:46;;;;;;;20.23;12.25;;;;;;;;;;5051765;28;20108;-87
2024/03/22 08:34:12;;;;;;;19.02;11.15;;;;;;;;;;5045027;28;20025;-87
2024/03/22 08:36:37;;;;;;;19.60;11.73;;;;;;;;;;5052533;28;20391;-89
2024/03/22 08:39:03;;;;;;;19.50;11.75;;;;;;;;;;5052407;28;20317;-87
2024/03/22 08:41:28;;;;;;;19.83;11.32;;;;;;;;;;5053293;28;20386;-88
2024/03/22 08:43:53;;;;;;;21.13;11.55;;;;;;;;;;5056984;28;20025;-87
2024/03/22 08:46:21;;;;;;;18.02;10.98;;;;;;;;;;5042110;28;20503;-88
2024/03/22 08:48:46;;;;;;;19.13;10.93;;;;;;;;;;5033385;28;20033;-87
2024/03/22 08:51:12;;;;;;;19.67;11.25;;;;;;;;;;5036821;28;20363;-88
2024/03/22 08:53:37;;;;;;;18.92;10.85;;;;;;;;;;5044938;28;20398;-87
2024/03/22 08:56:03;;;;;;;19.30;10.52;;;;;;;;;;5037794;28;20456;-87
2024/03/22 08:58:28;;;;;;;18.30;11.23;;;;;;;;;;5040555;28;20030;-87
2024/03/22 09:00:54;;;;;;;20.10;11.32;;;;;;;;;;5047740;28;20025;-88
2024/03/22 09:03:21;;;;;;;18.52;11.07;;;;;;;;;;5043571;28;20025;-88
2024/03/22 09:05:46;;;;;;;18.50;10.55;;;;;;;;;;5047830;28;20043;-88
2024/03/22 09:08:12;;;;;;;19.55;10.80;;;;;;;;;;5028394;28;20020;-87
2024/03/22 09:10:37;;;;;;;21.05;10.23;;;;;;;;;;5038888;28;20057;-87
2024/03/22 09:13:03;;;;;;;19.80;10.77;;;;;;;;;;5043942;28;20037;-88
2024/03/22 09:15:28;;;;;;;16.85;10.32;;;;;;;;;;5038840;28;20419;-77
2024/03/22 09:17:54;;;;;;;18.02;10.85;;;;;;;;;;5044966;28;20422;-77
2024/03/22 09:20:19;;;;;;;17.67;10.32;;;;;;;;;;5047940;28;20100;-77
2024/03/22 09:22:46;;;;;;;20.25;10.90;;;;;;;;;;5050451;28;20020;-77
2024/03/22 09:25:11;;;;;;;18.42;9.98;;;;;;;;;;5050590;28;20119;-77
2024/03/22 09:27:37;;;;;;;18.90;11.23;;;;;;;;;;5034351;28;20453;-77
2024/03/22 09:30:04;;;;;;;15.60;9.52;;;;;;;;;;5051469;28;20033;-77
2024/03/22 09:32:29;;;;;;;17.08;10.50;;;;;;;;;;5050238;28;20500;-77
2024/03/22 09:34:55;;;;;;;19.08;10.65;;;;;;;;;;5036729;28;20025;-77
2024/03/22 09:37:20;;;;;;;19.02;10.95;;;;;;;;;;5050166;28;20028;-77
2024/03/22 09:39:45;;;;;;;20.08;11.65;;;;;;;;;;5044772;28;20719;-78
2024/03/22 09:42:17;;;;;;;16.90;10.32;;;;;;;;;;5036503;28;20020;-78
2024/03/22 09:44:47;;;;;;;19.92;11.00;;;;;;;;;;5042891;28;20029;-77
2024/03/22 09:47:15;;;;;;;20.40;11.30;;;;;;;;;;5048433;28;20150;-78
2024/03/22 09:49:46;;;;;;;18.65;10.75;;;;;;;;;;5046443;28;20025;-78
2024/03/22 09:52:12;;;;;;;20.92;11.63;;;;;;;;;;5045900;28;20032;-78
2024/03/22 09:54:38;;;;;;;19.58;11.48;;;;;;;;;;5039788;28;20384;-78
2024/03/22 09:57:04;;;;;;;21.20;11.48;;;;;;;;;;5050926;28;20136;-78
2024/03/22 09:59:30;;;;;;;21.23;11.43;;;;;;;;;;5051437;28;20024;-77
2024/03/22 10:01:58;;;;;;;20.88;12.27;;;;;;;;;;5033096;28;20120;-77
2024/03/22 10:04:23;;;;;;;20.33;11.77;;;;;;;;;;5039423;28;20036;-77
2024/03/22 10:06:49;;;;;;;21.20;11.88;;;;;;;;;;5048175;28;20021;-77
2024/03/22 10:09:16;;;;;;;24.17;13.02;;;;;;;;;;5032695;28;20048;-77
2024/03/22 10:11:41;;;;;;;22.13;11.80;;;;;;;;;;5044744;28;20371;-77
2024/03/22 10:14:06;;;;;;;23.23;12.57;;;;;;;;;;5046390;28;20100;-77
2024/03/22 10:16:35;;;;;;;20.10;11.98;;;;;;;;;;5040782;28;20032;-78
2024/03/22 10:19:00;;;;;;;21.13;12.32;;;;;;;;;;5050239;28;20021;-77
2024/03/22 10:21:27;;;;;;;22.50;13.30;;;;;;;;;;5041089;28;20035;-77
2024/03/22 10:23:53;;;;;;;20.05;11.82;;;;;;;;;;5052145;28;20383;-86
2024/03/22 10:26:19;;;;;;;20.00;11.85;;;;;;;;;;5032938;28;20115;-87
2024/03/22 10:28:48;;;;;;;20.15;11.68;;;;;;;;;;5050495;28;20048;-86
2024/03/22 10:31:14;;;;;;;20.90;12.13;;;;;;;;;;5045994;28;20474;-86
2024/03/22 10:33:41;;;;;;;20.75;12.25;;;;;;;;;;5024935;28;20078;-87
2024/03/22 10:36:07;;;;;;;25.83;12.30;;;;;;;;;;5051052;28;20107;-86
2024/03/22 10:38:36;;;;;;;20.88;12.85;;;;;;;;;;5054392;28;20021;-87
2024/03/22 10:41:02;;;;;;;23.63;13.10;;;;;;;;;;5040044;28;20028;-87
2024/03/22 10:43:27;;;;;;;20.88;11.65;;;;;;;;;;5053063;28;20037;-87
2024/03/22 10:45:59;;;;;;;20.65;12.20;;;;;;;;;;5048932;28;20400;-86
2024/03/22 10:48:29;;;;;;;21.45;13.13;;;;;;;;;;5050776;28;20024;-87
2024/03/22 10:50:58;;;;;;;19.17;11.23;;;;;;;;;;5049683;28;20490;-86
2024/03/22 10:53:27;;;;;;;20.83;11.90;;;;;;;;;;5044353;28;20025;-87
2024/03/22 10:55:53;;;;;;;18.95;11.80;;;;;;;;;;5036481;28;20025;-86
2024/03/22 10:58:23;;;;;;;19.15;11.13;;;;;;;;;;5032043;28;20025;-85
2024/03/22 11:00:51;;;;;;;22.23;12.10;;;;;;;;;;5029449;28;20048;-86
2024/03/22 11:03:20;;;;;;;17.80;11.25;;;;;;;;;;5029198;28;20020;-87
2024/03/22 11:05:52;;;;;;;15.48;10.38;;;;;;;;;;5046261;28;20025;-87
2024/03/22 11:08:26;;;;;;;19.92;11.05;;;;;;;;;;5050361;28;20463;-86
2024/03/22 11:10:52;;;;;;;16.08;10.85;;;;;;;;;;5048872;28;20033;-87
2024/03/22 11:13:18;;;;;;;16.35;11.02;;;;;;;;;;5048988;28;20489;-87
2024/03/22 11:15:43;;;;;;;14.23;9.63;;;;;;;;;;5048180;28;20104;-87
2024/03/22 11:18:09;;;;;;;15.30;9.32;;;;;;;;;;5035596;28;20025;-87
2024/03/22 11:20:38;;;;;;;16.50;10.20;;;;;;;;;;5045449;28;20032;-86
2024/03/22 11:23:07;;;;;;;15.10;9.25;;;;;;;;;;5048275;28;20033;-86
2024/03/22 11:25:33;;;;;;;15.45;9.43;;;;;;;;;;5048655;28;20112;-87
2024/03/22 11:28:00;;;;;;;14.57;8.85;;;;;;;;;;5038873;28;20112;-86
2024/03/22 11:30:27;;;;;;;15.73;9.70;;;;;;;;;;5039899;28;20554;-86
2024/03/22 11:32:54;;;;;;;16.38;9.57;;;;;;;;;;5033153;28;20071;-86
2024/03/22 11:35:19;;;;;;;12.70;8.35;;;;;;;;;;5034847;28;20047;-77
2024/03/22 11:37:44;;;;;;;13.10;8.13;;;;;;;;;;5036492;28;20478;-77
2024/03/22 11:40:11;;;;;;;15.63;9.48;;;;;;;;;;5043788;28;20542;-78
2024/03/22 11:42:39;;;;;;;13.77;8.50;;;;;;;;;;5050346;28;20025;-77
2024/03/22 11:45:05;;;;;;;15.48;8.05;;;;;;;;;;5031822;28;20180;-77
2024/03/22 11:47:33;;;;;;;12.18;7.75;;;;;;;;;;5031786;28;20032;-77
2024/03/22 11:49:58;;;;;;;12.07;7.97;;;;;;;;;;5024754;28;20115;-78
2024/03/22 11:52:27;;;;;;;11.63;7.70;;;;;;;;;;5033504;28;20554;-78
2024/03/22 11:54:52;;;;;;;12.55;7.53;;;;;;;;;;5028853;28;20025;-78
2024/03/22 11:57:18;;;;;;;12.68;7.95;;;;;;;;;;5027989;28;20495;-78
2024/03/22 11:59:44;;;;;;;13.52;7.22;;;;;;;;;;5045149;28;20529;-77
2024/03/22 12:02:10;;;;;;;10.98;6.93;;;;;;;;;;5046189;28;20052;-77
2024/03/22 12:04:35;;;;;;;10.85;7.30;;;;;;;;;;5052211;28;20025;-76
2024/03/22 12:07:01;;;;;;;8.70;6.10;;;;;;;;;;5046954;28;20021;-76
2024/03/22 12:09:26;;;;;;;9.60;6.00;;;;;;;;;;5021727;28;20029;-76
2024/03/22 12:11:55;;;;;;;9.93;6.03;;;;;;;;;;5037047;28;20029;-77
2024/03/22 12:14:20;;;;;;;10.95;6.70;;;;;;;;;;5026805;28;20025;-76
2024/03/22 12:16:46;;;;;;;10.82;6.35;;;;;;;;;;5033473;28;20071;-76
2024/03/22 12:19:11;;;;;;;11.98;7.03;;;;;;;;;;5046393;28;20026;-77
2024/03/22 12:21:37;;;;;;;9.13;6.07;;;;;;;;;;5044249;28;20535;-77
2024/03/22 12:24:02;;;;;;;9.93;6.28;;;;;;;;;;5034853;28;20043;-77
2024/03/22 12:26:29;;;;;;;8.27;6.28;;;;;;;;;;5032598;28;20033;-77
2024/03/22 12:28:57;;;;;;;8.98;6.00;;;;;;;;;;5036842;28;20075;-77
2024/03/22 12:31:22;;;;;;;8.77;5.72;;;;;;;;;;5048910;28;20028;-77
2024/03/22 12:33:48;;;;;;;7.90;5.35;;;;;;;;;;5050975;28;20483;-77
2024/03/22 12:36:13;;;;;;;7.90;5.50;;;;;;;;;;5051851;28;20025;-77
2024/03/22 12:38:39;;;;;;;6.55;5.32;;;;;;;;;;5034195;28;20064;-77
2024/03/22 12:41:05;;;;;;;7.97;5.30;;;;;;;;;;5026161;28;20115;-77
2024/03/22 12:43:31;;;;;;;6.88;5.15;;;;;;;;;;5043115;28;20029;-89
2024/03/22 12:45:56;;;;;;;7.03;5.53;;;;;;;;;;5021215;28;20028;-88
2024/03/22 12:48:21;;;;;;;7.03;5.20;;;;;;;;;;5052496;28;20367;-89
2024/03/22 12:50:47;;;;;;;7.03;5.00;;;;;;;;;;5042490;28;20032;-88
2024/03/22 12:53:12;;;;;;;7.72;5.03;;;;;;;;;;5051388;28;20100;-88
2024/03/22 12:55:38;;;;;;;6.70;4.78;;;;;;;;;;5050466;28;20025;-89
2024/03/22 12:58:04;;;;;;;6.93;4.80;;;;;;;;;;5039420;28;20032;-89
2024/03/22 13:00:30;;;;;;;7.70;5.00;;;;;;;;;;5049583;28;20071;-89
2024/03/22 13:02:55;;;;;;;6.50;5.15;;;;;;;;;;5053364;28;20037;-88
2024/03/22 13:05:20;;;;;;;6.60;4.07;;;;;;;;;;5040796;28;20483;-88
2024/03/22 13:07:46;;;;;;;6.93;4.15;;;;;;;;;;5052716;28;20025;-88
2024/03/22 13:10:11;;;;;;;5.18;3.47;;;;;;;;;;5052780;28;20372;-88
2024/03/22 13:12:37;;;;;;;5.85;4.30;;;;;;;;;;5052711;28;20036;-87
2024/03/22 13:15:02;;;;;;;5.80;4.20;;;;;;;;;;5047897;28;20087;-88
2024/03/22 13:17:28;;;;;;;6.30;4.25;;;;;;;;;;5037473;28;20062;-87
2024/03/22 13:19:53;;;;;;;5.82;3.50;;;;;;;;;;5052951;28;20094;-88
2024/03/22 13:22:19;;;;;;;6.28;4.30;;;;;;;;;;5048303;28;20051;-88
2024/03/22 13:24:45;;;;;;;8.50;5.15;;;;;;;;;;5048060;28;20025;-87
2024/03/22 13:27:12;;;;;;;8.68;5.20;;;;;;;;;;5041701;28;20025;-88
2024/03/22 13:29:37;;;;;;;9.65;5.95;;;;;;;;;;5047506;28;20029;-88
2024/03/22 13:32:04;;;;;;;9.60;5.53;;;;;;;;;;5047098;28;20058;-90
2024/03/22 13:34:29;;;;;;;8.07;5.18;;;;;;;;;;5050567;28;20017;-88
2024/03/22 13:36:55;;;;;;;10.07;5.57;;;;;;;;;;5049035;28;20159;-88
2024/03/22 13:39:20;;;;;;;10.80;5.88;;;;;;;;;;5039786;28;20483;-89
2024/03/22 13:41:47;;;;;;;9.98;5.55;;;;;;;;;;5035665;28;20021;-89
2024/03/22 13:44:12;;;;;;;9.35;5.95;;;;;;;;;;5029000;28;20545;-89
2024/03/22 13:46:41;;;;;;;9.40;5.88;;;;;;;;;;5042115;28;20048;-89
2024/03/22 13:49:17;;;;;;;10.60;6.25;;;;;;;;;;5033257;28;20052;-89
2024/03/22 13:51:43;;;;;;;8.82;5.85;;;;;;;;;;5040623;28;20040;-87
2024/03/22 13:54:10;;;;;;;11.25;6.60;;;;;;;;;;5050396;28;20036;-77
2024/03/22 13:56:35;;;;;;;11.20;6.95;;;;;;;;;;5041135;28;20017;-77
2024/03/22 13:59:01;;;;;;;13.55;7.63;;;;;;;;;;5030908;28;20063;-77
2024/03/22 14:01:27;;;;;;;11.70;6.88;;;;;;;;;;5044693;28;20029;-77
2024/03/22 14:03:52;;;;;;;13.15;7.05;;;;;;;;;;5037247;28;20403;-77
2024/03/22 14:06:18;;;;;;;11.20;7.22;;;;;;;;;;5028378;28;20029;-77
2024/03/22 14:08:43;;;;;;;13.27;7.85;;;;;;;;;;5033588;28;20032;-77
2024/03/22 14:11:08;;;;;;;11.30;7.28;;;;;;;;;;5048200;28;20378;-77
2024/03/22 14:13:34;;;;;;;11.82;7.22;;;;;;;;;;5026014;28;20052;-77